Etusivu
METAR-TAF:

METAR-TAF

Lentoasemat :

Kimble County Airport

Junction, Texas, Yhdysvallat

Leveyspiiri: 30-30-39N, Pituuspiiri: 099-45-59W, korkeus merenpinnasta: 527 m

Tämänhetkinen sää

Tämä raportti tehtiin 20 minuuttia sitten, kello 02.51 UTC
tyyntä
Lämpötila 23°C
Kosteus 57%
Ilmanpaine 1008 hPa
Näkyvyys: 16.1 km
selkeää

METAR: KJCT 190251Z AUTO 00000KT 10SM CLR 23/14 A2976 RMK AO2 SLP048 T02280144 51016

Aika: 22:11 (03:11 UTC)

Sääennuste

Tämä raportti tehtiin 3 tuntia ja 48 minuuttia sitten, kello 23.23 UTC
Ennuste voimassa 19. päivästä klo 00 UTC - 19. päivään klo 24 UTC
Tuuli 10 kn etelästä/lounaasta
Näkyvyys: 10 km
selkeää
From 19. päivästä klo 0100 UTC
Tuuli 4 kn eri suunnista
Näkyvyys: 10 km
Hajanaisia pilviä 8000 ft:n korkeudessa
Hajanaisia pilviä 25000 ft:n korkeudessa
From 19. päivästä klo 1700 UTC
Tuuli 10 kn luoteesta
Näkyvyys: 10 km
selkeää

TAF: KJCT 182323Z 1900/1924 20010KT P6SM SKC FM190100 VRB04KT P6SM SCT080 SCT250 FM191700 31010KT P6SM SKC

Säähavainnot ja -ennusteet yli 4000 lentoasemalta (METAR- ja TAF-raportit).

Käytössä olevat sääasemat on merkitty karttaan keltaisilla ja punaisilla pisteillä.

Aseta hiiri pisteen päälle nähdäksesi sääaseman nimen.

Klikkaa sitten nähdäksesi säähavainnot ja -ennusteet.

Kartan vaihtaminen: klikkaa mustalla rastilla varustettuja vihreitä pisteitä, niin voit zoomata sisään; viivalla varustettua vihreää pistettä, niin voit zoomata ulos tai vihreitä nuolia, niin pääset viereisille kartoille.


METAR-TAF: